Terminal Aerodrome Forecast
Issued by NWS Birmingham, AL

Home | Current Version | Previous Version | Text Only | Print | Product List | Glossary On
Versions: 1 2 3 4 5 6 7 8 9 10 11 12 13 14 15 16 17 18 19 20 21
697
FTUS44 KBMX 241729
TAFBHM
TAF
KBHM 241729Z 2418/2518 29005KT P6SM VCSH BKN020 OVC035
     FM242000 32008KT P6SM SCT025 BKN035
     FM242300 34007KT P6SM FEW040 BKN120=

USA.gov is the U.S. government's official web portal to all federal, state and local government web resources and services.